Terminal Aerodrome Forecast
Issued by NWS

Home | Current Version | Previous Version | Text Only | Print | Product List | Glossary On
Versions: 1 2 3 4 5 6 7 8 9 10 11 12 13 14 15 16 17
000
FTUS43 KIND 241100
TAFLAF
TAF
KLAF 241120Z 2412/2512 VRB03KT P6SM OVC040
      TEMPO 2412/2414 -RA BKN030
     FM241500 23007KT P6SM OVC040
     FM241700 24005KT P6SM BKN250
     FM242300 20002KT P6SM BKN250
     FM250800 21002KT 5SM BR BKN040
      AMD LTD TO CLD VIS AND WIND TIL 241300=

USA.gov is the U.S. government's official web portal to all federal, state and local government web resources and services.